Terminal Aerodrome Forecast
Issued by NWS

Home | Current Version | Previous Version | Text Only | Print | Product List | Glossary On
Versions: 1 2 3 4 5 6 7 8 9 10 11 12 13 14 15
072
FTUS45 KGGW 172228 AAA
TAFSDY
TAF AMD
KSDY 172228Z 1722/1818 23017KT P6SM SCT050 BKN100
     FM180000 24007KT P6SM OVC080
     FM181200 25010KT 5SM -RASN OVC045=

USA.gov is the U.S. government's official web portal to all federal, state and local government web resources and services.